Terminal Aerodrome Forecast
Issued by NWS

Home | Current Version | Previous Version | Text Only | Print | Product List | Glossary On
Versions: 1 2 3 4 5 6 7 8 9 10 11 12
000
FTUS45 KABQ 232300
TAFGUP
TAF
KGUP 232340Z 2400/2424 31017G26KT P6SM FEW060
     FM240100 32007KT P6SM SKC
     FM240600 VRB03KT P6SM SKC
     FM241900 27014G22KT P6SM SKC=

USA.gov is the U.S. government's official web portal to all federal, state and local government web resources and services.